createdAt,value
2017-12-21T00:00:01.101Z,18.07
2017-12-21T00:02:29.392Z,15.13
2017-12-21T00:04:57.892Z,17.97
2017-12-21T00:07:26.161Z,16.00
2017-12-21T00:09:54.419Z,13.40
2017-12-21T00:12:22.694Z,11.63
2017-12-21T00:14:51.101Z,12.63
2017-12-21T00:17:19.374Z,12.60
2017-12-21T00:19:47.640Z,14.30
2017-12-21T00:22:15.899Z,10.17
2017-12-21T00:24:44.181Z,9.47
2017-12-21T00:27:12.483Z,11.23
2017-12-21T00:29:40.748Z,14.00
2017-12-21T00:32:09.042Z,12.93
2017-12-21T00:34:37.291Z,12.23
2017-12-21T00:37:05.629Z,9.83
2017-12-21T00:39:34.075Z,10.07
2017-12-21T00:42:02.454Z,10.30
2017-12-21T00:44:30.695Z,11.70
2017-12-21T00:46:58.976Z,11.83
2017-12-21T00:49:27.253Z,6.70
2017-12-21T00:51:55.560Z,9.73
2017-12-21T00:54:23.833Z,7.97
2017-12-21T00:56:52.100Z,11.60
2017-12-21T00:59:20.404Z,6.43
2017-12-21T01:01:48.685Z,10.40
2017-12-21T01:04:19.403Z,6.90
2017-12-21T01:06:47.785Z,8.90
2017-12-21T01:09:16.033Z,9.23
2017-12-21T01:11:44.329Z,6.90
2017-12-21T01:14:12.596Z,9.27
2017-12-21T01:16:40.844Z,7.73
2017-12-21T01:19:09.166Z,6.30
2017-12-21T01:21:37.417Z,6.30
2017-12-21T01:24:05.727Z,6.07
2017-12-21T01:26:33.998Z,6.23
2017-12-21T01:29:02.275Z,8.03
2017-12-21T01:31:30.574Z,6.83
2017-12-21T01:33:58.929Z,8.47
2017-12-21T01:36:27.180Z,6.17
2017-12-21T01:38:55.446Z,7.57
2017-12-21T01:41:23.708Z,4.23
2017-12-21T01:43:52.852Z,6.70
2017-12-21T01:46:21.108Z,7.80
2017-12-21T01:48:49.416Z,7.83
2017-12-21T01:51:17.796Z,5.57
2017-12-21T01:53:46.069Z,5.03
2017-12-21T01:56:14.440Z,5.27
2017-12-21T01:58:42.727Z,9.43
2017-12-21T02:01:11.017Z,6.33
2017-12-21T02:03:39.264Z,4.57
2017-12-21T02:06:07.552Z,5.10
2017-12-21T02:08:35.835Z,6.10
2017-12-21T02:11:04.185Z,4.27
2017-12-21T02:13:32.479Z,6.90
2017-12-21T02:16:00.743Z,4.07
2017-12-21T02:18:28.988Z,5.00
2017-12-21T02:20:58.019Z,5.03
2017-12-21T02:23:26.263Z,3.90
2017-12-21T02:25:54.537Z,4.33
2017-12-21T02:28:23.552Z,4.60
2017-12-21T02:30:51.914Z,4.10
2017-12-21T02:33:20.962Z,3.67
2017-12-21T02:35:49.212Z,3.33
2017-12-21T02:38:17.976Z,4.37
2017-12-21T02:40:46.405Z,3.03
2017-12-21T02:43:14.682Z,3.63
2017-12-21T02:45:42.944Z,3.10
2017-12-21T02:48:11.212Z,3.77
2017-12-21T02:50:39.485Z,3.30
2017-12-21T02:53:07.781Z,4.33
2017-12-21T02:55:36.032Z,4.00
2017-12-21T02:58:04.310Z,6.00
2017-12-21T03:00:32.586Z,3.67
2017-12-21T03:03:01.636Z,4.13
2017-12-21T03:05:29.863Z,3.20
2017-12-21T03:07:58.116Z,3.70
2017-12-21T03:10:27.143Z,3.27
2017-12-21T03:12:55.439Z,4.97
2017-12-21T03:15:23.708Z,4.00
2017-12-21T03:17:51.964Z,4.67
2017-12-21T03:20:20.270Z,3.70
2017-12-21T03:22:48.532Z,4.40
2017-12-21T03:25:16.783Z,3.87
2017-12-21T03:27:45.064Z,4.43
2017-12-21T03:30:13.314Z,5.07
2017-12-21T03:32:42.330Z,6.47
2017-12-21T03:35:10.595Z,4.93
2017-12-21T03:37:39.616Z,4.43
2017-12-21T03:40:07.893Z,5.97
2017-12-21T03:42:36.139Z,3.60
2017-12-21T03:45:04.552Z,3.53
2017-12-21T03:47:32.854Z,5.00
2017-12-21T03:50:01.141Z,9.03
2017-12-21T03:52:29.510Z,4.27
2017-12-21T03:54:57.790Z,7.13
2017-12-21T03:57:26.120Z,5.27
2017-12-21T03:59:55.264Z,5.10
2017-12-21T04:02:23.500Z,7.10
2017-12-21T04:04:51.777Z,5.07
2017-12-21T04:07:20.091Z,5.57
2017-12-21T04:09:48.339Z,4.10
2017-12-21T04:12:16.615Z,5.73
2017-12-21T04:14:44.873Z,6.53
2017-12-21T04:17:14.022Z,4.60
2017-12-21T04:19:42.298Z,6.10
2017-12-21T04:22:10.543Z,9.00
2017-12-21T04:24:38.956Z,7.67
2017-12-21T04:27:07.187Z,6.50
2017-12-21T04:29:35.468Z,4.77
2017-12-21T04:32:03.872Z,5.90
2017-12-21T04:34:32.108Z,5.10
2017-12-21T04:37:01.142Z,5.40
2017-12-21T04:39:29.390Z,5.63
2017-12-21T04:41:57.665Z,8.13
2017-12-21T04:44:26.676Z,8.20
2017-12-21T04:46:54.930Z,3.70
2017-12-21T04:49:24.052Z,9.63
2017-12-21T04:51:52.312Z,4.50
2017-12-21T04:54:20.609Z,5.10
2017-12-21T04:56:49.010Z,4.50
2017-12-21T04:59:17.241Z,6.23
2017-12-21T05:01:46.272Z,6.50
2017-12-21T05:04:14.536Z,7.77
2017-12-21T05:06:42.810Z,5.10
2017-12-21T05:09:11.064Z,6.83
2017-12-21T05:11:40.081Z,6.63
2017-12-21T05:14:08.535Z,7.33
2017-12-21T05:16:37.585Z,9.17
2017-12-21T05:19:05.872Z,6.30
2017-12-21T05:21:34.115Z,7.27
2017-12-21T05:24:02.362Z,9.20
2017-12-21T05:26:31.395Z,9.00
2017-12-21T05:28:59.669Z,7.97
2017-12-21T05:31:27.939Z,6.40
2017-12-21T05:33:56.194Z,6.67
2017-12-21T05:36:25.236Z,7.10
2017-12-21T05:38:53.516Z,5.53
2017-12-21T05:41:21.764Z,7.87
2017-12-21T05:43:50.051Z,5.83
2017-12-21T05:46:18.350Z,8.63
2017-12-21T05:48:46.633Z,6.10
2017-12-21T05:51:14.899Z,6.53
2017-12-21T05:53:43.152Z,10.37
2017-12-21T05:56:11.425Z,6.50
2017-12-21T05:58:39.688Z,8.40
2017-12-21T06:01:07.965Z,4.40
2017-12-21T06:03:36.215Z,7.27
2017-12-21T06:06:05.481Z,7.67
2017-12-21T06:08:33.770Z,7.77
2017-12-21T06:11:02.137Z,6.93
2017-12-21T06:13:30.405Z,7.50
2017-12-21T06:15:58.764Z,5.33
2017-12-21T06:18:27.015Z,5.07
2017-12-21T06:20:56.161Z,6.60
2017-12-21T06:23:24.473Z,5.70
2017-12-21T06:25:53.541Z,4.90
2017-12-21T06:28:21.833Z,6.17
2017-12-21T06:30:50.856Z,5.90
2017-12-21T06:33:19.909Z,7.83
2017-12-21T06:35:48.141Z,6.93
2017-12-21T06:38:16.417Z,8.70
2017-12-21T06:40:44.660Z,6.33
2017-12-21T06:43:12.945Z,5.60
2017-12-21T06:45:41.213Z,5.73
2017-12-21T06:48:09.570Z,7.03
2017-12-21T06:50:37.838Z,7.67
2017-12-21T06:53:06.123Z,6.73
2017-12-21T06:55:34.605Z,7.33
2017-12-21T06:58:02.877Z,8.50
2017-12-21T07:00:31.131Z,5.10
2017-12-21T07:02:59.398Z,6.60
2017-12-21T07:05:27.668Z,8.53
2017-12-21T07:07:55.925Z,13.33
2017-12-21T07:10:25.088Z,8.57
2017-12-21T07:12:53.329Z,16.87
2017-12-21T07:15:21.907Z,11.13
2017-12-21T07:17:50.150Z,14.07
2017-12-21T07:20:18.421Z,15.90
2017-12-21T07:22:47.472Z,25.03
2017-12-21T07:25:15.737Z,21.90
2017-12-21T07:27:44.054Z,19.20
2017-12-21T07:30:12.328Z,22.97
2017-12-21T07:32:40.616Z,22.43
2017-12-21T07:35:09.717Z,15.17
2017-12-21T07:37:38.028Z,16.93
2017-12-21T07:40:07.178Z,23.80
2017-12-21T07:42:35.428Z,13.23
2017-12-21T07:45:03.721Z,15.63
2017-12-21T07:47:31.996Z,17.57
2017-12-21T07:50:00.251Z,14.27
2017-12-21T07:52:28.563Z,10.67
2017-12-21T07:54:56.816Z,16.67
2017-12-21T07:57:25.068Z,16.43
2017-12-21T07:59:53.378Z,6.53
2017-12-21T08:02:21.627Z,10.27
2017-12-21T08:04:49.944Z,10.30
2017-12-21T08:07:18.205Z,11.00
2017-12-21T08:09:46.501Z,7.90
2017-12-21T08:12:14.772Z,9.20
2017-12-21T08:14:43.016Z,9.47
2017-12-21T08:17:11.309Z,8.70
2017-12-21T08:19:39.556Z,9.30
2017-12-21T08:22:07.989Z,6.53
2017-12-21T08:24:36.239Z,8.43
2017-12-21T08:27:04.491Z,10.63
2017-12-21T08:29:32.784Z,10.80
2017-12-21T08:32:01.083Z,12.37
2017-12-21T08:34:29.343Z,11.10
2017-12-21T08:36:57.628Z,9.50
2017-12-21T08:39:25.886Z,10.90
2017-12-21T08:41:54.224Z,9.30
2017-12-21T08:44:22.503Z,9.23
2017-12-21T08:46:52.272Z,8.57
2017-12-21T08:49:20.573Z,7.80
2017-12-21T08:51:48.829Z,7.00
2017-12-21T08:54:17.227Z,7.90
2017-12-21T08:56:45.467Z,8.40
2017-12-21T08:59:13.781Z,5.90
2017-12-21T09:01:42.061Z,7.40
2017-12-21T09:04:10.311Z,9.67
2017-12-21T09:06:38.607Z,7.90
2017-12-21T09:09:06.844Z,7.37
2017-12-21T09:11:35.165Z,6.97
2017-12-21T09:14:03.542Z,13.13
2017-12-21T09:16:31.811Z,6.47
2017-12-21T09:19:00.087Z,7.80
2017-12-21T09:21:28.378Z,7.50
2017-12-21T09:23:56.647Z,7.43
2017-12-21T09:26:25.024Z,8.60
2017-12-21T09:28:53.284Z,7.70
2017-12-21T09:31:21.560Z,7.63
2017-12-21T09:33:49.812Z,7.53
2017-12-21T09:36:18.077Z,8.67
2017-12-21T09:38:47.112Z,8.80
2017-12-21T09:41:15.394Z,5.40
2017-12-21T09:43:43.688Z,6.70
2017-12-21T09:46:12.004Z,10.97
2017-12-21T09:48:41.088Z,10.20
2017-12-21T09:51:10.993Z,10.50
2017-12-21T09:53:39.255Z,6.73
2017-12-21T09:56:07.497Z,9.40
2017-12-21T09:58:35.776Z,7.80
2017-12-21T10:01:04.032Z,8.33
2017-12-21T10:03:32.386Z,6.03
2017-12-21T10:06:00.757Z,7.57
2017-12-21T10:08:29.046Z,7.50
2017-12-21T10:10:57.305Z,5.97
2017-12-21T10:13:25.560Z,6.70
2017-12-21T10:15:53.954Z,6.93
2017-12-21T10:18:22.219Z,6.27
2017-12-21T10:20:50.497Z,8.67
2017-12-21T10:23:18.791Z,8.83
2017-12-21T10:25:47.064Z,6.40
2017-12-21T10:28:15.337Z,6.37
2017-12-21T10:30:43.589Z,6.27
2017-12-21T10:33:11.880Z,9.23
2017-12-21T10:35:40.240Z,5.83
2017-12-21T10:38:08.488Z,8.10
2017-12-21T10:40:37.545Z,8.47
2017-12-21T10:43:05.793Z,7.30
2017-12-21T10:45:34.094Z,7.50
2017-12-21T10:48:02.417Z,8.30
2017-12-21T10:50:30.649Z,7.10
2017-12-21T10:52:59.052Z,9.53
2017-12-21T10:55:27.301Z,9.20
2017-12-21T10:57:55.564Z,8.93
2017-12-21T11:00:23.849Z,7.97
2017-12-21T11:02:52.096Z,7.97
2017-12-21T11:05:20.391Z,7.73
2017-12-21T11:07:48.660Z,8.03
2017-12-21T11:10:16.916Z,11.03
2017-12-21T11:12:45.196Z,10.70
2017-12-21T11:15:13.463Z,9.70
2017-12-21T11:17:42.513Z,8.33
2017-12-21T11:20:10.755Z,9.97
2017-12-21T11:22:39.064Z,11.00
2017-12-21T11:25:07.341Z,7.40
2017-12-21T11:27:35.597Z,10.47
2017-12-21T11:30:03.921Z,8.87
2017-12-21T11:32:32.171Z,8.00
2017-12-21T11:35:00.607Z,7.87
2017-12-21T11:37:29.400Z,8.57
2017-12-21T11:39:58.412Z,8.37
2017-12-21T11:42:26.696Z,9.03
2017-12-21T11:44:54.960Z,9.60
2017-12-21T11:47:23.208Z,8.70
2017-12-21T11:49:52.254Z,7.03
2017-12-21T11:52:20.517Z,8.93
2017-12-21T11:54:48.799Z,8.00
2017-12-21T11:57:17.098Z,6.97
2017-12-21T11:59:45.384Z,10.10
2017-12-21T12:02:13.672Z,7.80
2017-12-21T12:04:42.034Z,10.30
2017-12-21T12:07:10.319Z,9.40
2017-12-21T12:09:38.556Z,11.27
2017-12-21T12:12:06.859Z,9.03
2017-12-21T12:14:35.121Z,9.50
2017-12-21T12:17:03.418Z,10.57
2017-12-21T12:19:31.698Z,10.47
2017-12-21T12:21:59.988Z,7.37
2017-12-21T12:24:29.012Z,7.77
2017-12-21T12:26:58.162Z,10.33
2017-12-21T12:29:26.473Z,8.83
2017-12-21T12:31:55.538Z,10.83
2017-12-21T12:34:23.787Z,10.97
2017-12-21T12:36:52.082Z,8.00
2017-12-21T12:39:20.364Z,10.70
2017-12-21T12:41:48.644Z,9.80
2017-12-21T12:44:17.023Z,10.33
2017-12-21T12:46:45.279Z,13.47
2017-12-21T12:49:13.581Z,12.70
2017-12-21T12:51:41.851Z,9.57
2017-12-21T12:54:10.107Z,9.87
2017-12-21T12:56:38.395Z,15.60
2017-12-21T12:59:06.631Z,8.37
2017-12-21T13:01:35.684Z,8.33
2017-12-21T13:04:04.037Z,9.97
2017-12-21T13:06:32.281Z,7.77
2017-12-21T13:09:01.325Z,10.43
2017-12-21T13:11:29.579Z,9.53
2017-12-21T13:13:57.842Z,10.50
2017-12-21T13:16:26.288Z,7.20
2017-12-21T13:18:54.631Z,8.70
2017-12-21T13:21:22.897Z,6.80
2017-12-21T13:23:51.145Z,7.77
2017-12-21T13:26:20.156Z,8.70
2017-12-21T13:28:48.433Z,9.83
2017-12-21T13:31:16.695Z,7.33
2017-12-21T13:33:45.744Z,9.80
2017-12-21T13:36:13.991Z,8.20
2017-12-21T13:38:42.293Z,7.73
2017-12-21T13:41:10.680Z,8.27
2017-12-21T13:43:38.930Z,8.90
2017-12-21T13:46:07.205Z,7.03
2017-12-21T13:48:35.476Z,7.13
2017-12-21T13:51:03.746Z,7.23
2017-12-21T13:53:32.033Z,10.97
2017-12-21T13:56:00.288Z,9.27
2017-12-21T13:58:28.624Z,10.73
2017-12-21T14:00:57.690Z,11.47
2017-12-21T14:03:25.916Z,6.60
2017-12-21T14:05:54.965Z,10.50
2017-12-21T14:08:23.224Z,9.97
2017-12-21T14:10:51.511Z,8.73
2017-12-21T14:13:19.757Z,10.63
2017-12-21T14:15:48.771Z,8.40
2017-12-21T14:18:17.081Z,12.73
2017-12-21T14:20:45.333Z,7.93
2017-12-21T14:23:13.602Z,9.60
2017-12-21T14:25:41.863Z,8.13
2017-12-21T14:28:10.130Z,9.37
2017-12-21T14:30:38.400Z,11.17
2017-12-21T14:33:06.684Z,10.03
2017-12-21T14:35:35.069Z,10.77
2017-12-21T14:38:03.340Z,12.97
2017-12-21T14:40:31.596Z,9.73
2017-12-21T14:42:59.871Z,8.63
2017-12-21T14:45:28.120Z,7.60
2017-12-21T14:47:57.181Z,9.87
2017-12-21T14:50:25.436Z,11.00
2017-12-21T14:52:53.692Z,8.67
2017-12-21T14:55:22.072Z,7.30
2017-12-21T14:57:50.324Z,8.17
2017-12-21T15:00:20.184Z,12.67
2017-12-21T15:02:48.441Z,9.30
2017-12-21T15:05:16.709Z,13.83
2017-12-21T15:07:44.980Z,9.33
2017-12-21T15:10:13.299Z,12.03
2017-12-21T15:12:41.682Z,8.00
2017-12-21T15:15:09.928Z,9.87
2017-12-21T15:17:38.340Z,8.40
2017-12-21T15:20:06.595Z,8.50
2017-12-21T15:22:34.861Z,7.13
2017-12-21T15:25:03.157Z,9.90
2017-12-21T15:27:31.400Z,8.80
2017-12-21T15:29:59.657Z,7.60
2017-12-21T15:32:28.710Z,10.40
2017-12-21T15:34:56.993Z,7.90
2017-12-21T15:37:25.256Z,9.93
2017-12-21T15:39:53.511Z,8.27
2017-12-21T15:42:21.788Z,9.67
2017-12-21T15:44:50.924Z,9.97
2017-12-21T15:47:19.233Z,7.70
2017-12-21T15:49:47.527Z,10.07
2017-12-21T15:52:15.783Z,10.77
2017-12-21T15:54:44.847Z,10.30
2017-12-21T15:57:13.228Z,13.27
2017-12-21T15:59:41.498Z,9.93
2017-12-21T16:02:09.899Z,6.27
2017-12-21T16:04:38.726Z,7.87
2017-12-21T16:07:07.769Z,9.60
2017-12-21T16:09:36.036Z,9.00
2017-12-21T16:12:04.529Z,8.70
2017-12-21T16:14:32.793Z,9.03
2017-12-21T16:17:01.187Z,7.97
2017-12-21T16:19:29.429Z,9.00
2017-12-21T16:21:58.249Z,10.10
2017-12-21T16:24:26.509Z,9.23
2017-12-21T16:26:54.813Z,8.43
2017-12-21T16:29:23.073Z,8.43
2017-12-21T16:31:51.323Z,6.67
2017-12-21T16:34:20.016Z,8.80
2017-12-21T16:36:48.276Z,6.73
2017-12-21T16:39:16.551Z,9.40
2017-12-21T16:41:44.804Z,8.10
2017-12-21T16:44:13.822Z,6.00
2017-12-21T16:46:42.246Z,11.93
2017-12-21T16:49:10.498Z,10.00
2017-12-21T16:51:38.897Z,7.00
2017-12-21T16:54:07.174Z,6.47
2017-12-21T16:56:35.412Z,10.10
2017-12-21T16:59:03.840Z,9.27
2017-12-21T17:01:32.088Z,8.23
2017-12-21T17:04:00.388Z,7.77
2017-12-21T17:06:28.656Z,6.00
2017-12-21T17:08:56.912Z,6.30
2017-12-21T17:11:25.952Z,9.33
2017-12-21T17:13:54.348Z,13.57
2017-12-21T17:16:22.621Z,8.23
2017-12-21T17:18:50.913Z,10.43
2017-12-21T17:21:20.147Z,6.37
2017-12-21T17:23:48.474Z,7.63
2017-12-21T17:26:16.732Z,7.00
2017-12-21T17:28:45.012Z,10.50
2017-12-21T17:31:13.305Z,7.13
2017-12-21T17:33:41.564Z,7.30
2017-12-21T17:36:09.831Z,7.70
2017-12-21T17:38:38.084Z,9.47
2017-12-21T17:41:07.132Z,9.40
2017-12-21T17:43:35.466Z,4.87
2017-12-21T17:46:03.994Z,19.33
2017-12-21T17:48:32.476Z,8.87
2017-12-21T17:51:00.791Z,6.83
2017-12-21T17:53:29.132Z,10.87
2017-12-21T17:55:57.408Z,8.87
2017-12-21T17:58:25.653Z,7.73
2017-12-21T18:00:54.068Z,7.00
2017-12-21T18:03:22.349Z,8.10
2017-12-21T18:05:50.785Z,8.30
2017-12-21T18:08:19.115Z,14.60
2017-12-21T18:10:48.121Z,11.97
2017-12-21T18:13:17.191Z,9.83
2017-12-21T18:15:45.476Z,11.17
2017-12-21T18:18:13.851Z,9.07
2017-12-21T18:20:42.080Z,9.17
2017-12-21T18:23:10.386Z,7.20
2017-12-21T18:25:39.467Z,9.23
2017-12-21T18:28:07.711Z,7.77
2017-12-21T18:30:38.212Z,7.13
2017-12-21T18:33:06.487Z,12.97
2017-12-21T18:35:34.757Z,12.20
2017-12-21T18:38:03.060Z,7.03
2017-12-21T18:40:32.811Z,8.47
2017-12-21T18:43:01.224Z,15.97
2017-12-21T18:45:29.498Z,13.30
2017-12-21T18:47:57.759Z,9.83
2017-12-21T18:50:26.037Z,8.63
2017-12-21T18:52:54.292Z,8.20
2017-12-21T18:55:22.572Z,15.93
2017-12-21T18:57:50.824Z,12.20
2017-12-21T19:00:19.843Z,9.23
2017-12-21T19:02:48.119Z,11.53
2017-12-21T19:05:16.372Z,9.63
2017-12-21T19:07:44.647Z,8.13
2017-12-21T19:10:13.701Z,9.80
2017-12-21T19:12:41.952Z,11.50
2017-12-21T19:15:10.227Z,8.27
2017-12-21T19:17:38.504Z,8.20
2017-12-21T19:20:06.853Z,10.70
2017-12-21T19:22:35.873Z,8.37
2017-12-21T19:25:04.169Z,10.77
2017-12-21T19:27:32.466Z,13.83
2017-12-21T19:30:00.744Z,10.87
2017-12-21T19:32:29.044Z,11.30
2017-12-21T19:34:57.336Z,20.13
2017-12-21T19:37:26.397Z,10.50
2017-12-21T19:39:54.746Z,15.20
2017-12-21T19:42:23.049Z,12.27
2017-12-21T19:44:51.343Z,14.27
2017-12-21T19:47:19.598Z,13.50
2017-12-21T19:49:47.851Z,11.90
2017-12-21T19:52:16.162Z,13.23
2017-12-21T19:54:44.542Z,16.70
2017-12-21T19:57:12.911Z,11.10
2017-12-21T19:59:41.196Z,13.47
2017-12-21T20:02:09.457Z,13.60
2017-12-21T20:04:37.844Z,14.03
2017-12-21T20:07:06.096Z,13.60
2017-12-21T20:09:34.407Z,11.43
2017-12-21T20:12:02.698Z,11.07
2017-12-21T20:14:32.464Z,11.30
2017-12-21T20:17:00.875Z,12.73
2017-12-21T20:19:29.145Z,9.60
2017-12-21T20:21:57.447Z,12.90
2017-12-21T20:24:25.807Z,10.87
2017-12-21T20:26:54.084Z,10.60
2017-12-21T20:29:22.353Z,12.37
2017-12-21T20:31:50.608Z,13.70
2017-12-21T20:34:18.884Z,9.70
2017-12-21T20:36:47.172Z,11.60
2017-12-21T20:39:15.428Z,16.27
2017-12-21T20:41:44.320Z,13.07
2017-12-21T20:44:12.582Z,10.60
2017-12-21T20:46:41.635Z,12.57
2017-12-21T20:49:09.910Z,13.27
2017-12-21T20:51:38.182Z,10.83
2017-12-21T20:54:06.457Z,12.83
2017-12-21T20:56:34.716Z,10.47
2017-12-21T20:59:02.992Z,13.10
2017-12-21T21:01:31.266Z,14.23
2017-12-21T21:04:00.283Z,11.97
2017-12-21T21:06:28.582Z,14.50
2017-12-21T21:08:56.844Z,13.37
2017-12-21T21:11:25.246Z,14.70
2017-12-21T21:13:53.521Z,14.03
2017-12-21T21:16:21.804Z,17.20
2017-12-21T21:18:50.194Z,13.13
2017-12-21T21:21:18.465Z,15.70
2017-12-21T21:23:46.848Z,17.13
2017-12-21T21:26:15.123Z,16.97
2017-12-21T21:28:43.394Z,16.30
2017-12-21T21:31:11.685Z,18.07
2017-12-21T21:33:40.765Z,15.73
2017-12-21T21:36:09.054Z,21.20
2017-12-21T21:38:37.308Z,18.20
2017-12-21T21:41:05.569Z,21.37
2017-12-21T21:43:33.852Z,20.10
2017-12-21T21:46:02.159Z,19.73
2017-12-21T21:48:30.428Z,16.20
2017-12-21T21:50:58.688Z,20.40
2017-12-21T21:53:26.967Z,19.77
2017-12-21T21:55:55.267Z,19.80
2017-12-21T21:58:24.288Z,19.57
2017-12-21T22:00:53.346Z,26.20
2017-12-21T22:03:21.616Z,23.00
2017-12-21T22:05:49.878Z,28.23
2017-12-21T22:08:18.156Z,25.20
2017-12-21T22:10:46.420Z,26.67
2017-12-21T22:13:14.708Z,17.67
2017-12-21T22:15:42.971Z,23.70
2017-12-21T22:18:11.289Z,26.90
2017-12-21T22:20:39.667Z,26.47
2017-12-21T22:23:07.928Z,24.00
2017-12-21T22:25:36.237Z,20.43
2017-12-21T22:28:05.264Z,21.63
2017-12-21T22:30:33.596Z,23.27
2017-12-21T22:33:01.984Z,22.87
2017-12-21T22:35:31.013Z,30.20
2017-12-21T22:37:59.368Z,26.87
2017-12-21T22:40:27.620Z,28.20
2017-12-21T22:42:55.888Z,24.70
2017-12-21T22:45:24.190Z,25.70
2017-12-21T22:47:52.531Z,20.77
2017-12-21T22:50:20.815Z,21.87
2017-12-21T22:52:49.082Z,21.67
2017-12-21T22:55:17.387Z,29.43
2017-12-21T22:57:45.691Z,20.73
2017-12-21T23:00:24.789Z,23.83
2017-12-21T23:02:53.077Z,24.87
2017-12-21T23:05:21.344Z,22.73
2017-12-21T23:07:49.601Z,18.13
2017-12-21T23:10:17.886Z,21.60
2017-12-21T23:12:46.300Z,22.93
2017-12-21T23:15:14.598Z,21.63
2017-12-21T23:17:43.627Z,20.70
2017-12-21T23:20:11.896Z,18.67
2017-12-21T23:22:40.191Z,18.00
2017-12-21T23:25:08.477Z,17.30
2017-12-21T23:27:36.763Z,16.77
2017-12-21T23:30:05.142Z,26.27
2017-12-21T23:32:33.416Z,22.53
2017-12-21T23:35:01.812Z,24.27
2017-12-21T23:37:30.180Z,22.53
2017-12-21T23:39:58.461Z,19.97
2017-12-21T23:42:26.728Z,17.87
2017-12-21T23:44:55.220Z,14.73
2017-12-21T23:47:23.507Z,17.47
2017-12-21T23:49:53.267Z,19.73
2017-12-21T23:52:21.523Z,19.17
2017-12-21T23:54:50.680Z,15.80
2017-12-21T23:57:18.995Z,19.47
2017-12-21T23:59:48.072Z,17.23
